Portada
METAR-TAF:

METAR-TAF

Aeropuertos :

Talkeetna, Alaska, Estados Unidos

latitud: 62-19-14N, longitud: 150-05-37W, altitud: 109 m

Observación

El informe se hizo hace 23 minutos, a las 04:53 UTC
Viento 7 kt del sur-suroeste
Temperatura 22°C
Humedad 43%
Presión 1025 hPa
Visibilidad: 9.7 km
Cielo despejado
calima

METAR: PATK 250453Z AUTO 20007KT 6SM HZ CLR 22/09 A3026 RMK AO2 SLP248 T02170089 TSNO

Hora: 21:16 (05:16 UTC)

Pronóstico

El informe se hizo hace 5 horas y 35 minutos, a las 23:41 UTC
Pronóstico válido del 25 a las 00 UTC al 25 a las 24 UTC
Viento 7 kt del sur-suroeste
Visibilidad: 9.7 km
Cielo despejado
humo

TAF: PATK 242341Z 2500/2524 21007KT 6SM FU SKC

Observaciones y pronósticos meteorológicos de más de 4000 aeropuertos (mensajes METAR y TAF).

Los puntos amarillos y rojos representan las estaciones disponibles.

Ponga el ratón en el punto deseado para ver el nombre de la estación.

Haga clic para ver las observaciones y los pronósticos meteorológicos.

Para cambiar el mapa : haga clic en los botones verdes con una cruz de color negro para hacer un zoom, en el botón verde con un guión para alejar o en las flechas verdes para mapas adyacentes.


METAR-TAF: